createdAt,value
2022-10-23T00:01:45.518Z,9.89
2022-10-23T00:04:17.725Z,9.89
2022-10-23T00:06:46.619Z,9.89
2022-10-23T00:09:17.664Z,9.88
2022-10-23T00:11:51.028Z,9.88
2022-10-23T00:14:22.491Z,9.90
2022-10-23T00:16:50.842Z,9.90
2022-10-23T00:19:18.857Z,9.91
2022-10-23T00:21:46.909Z,9.91
2022-10-23T00:24:15.252Z,9.90
2022-10-23T00:26:43.713Z,9.89
2022-10-23T00:29:12.305Z,9.88
2022-10-23T00:31:40.342Z,9.88
2022-10-23T00:34:08.937Z,9.87
2022-10-23T00:36:38.190Z,9.86
2022-10-23T00:39:06.989Z,9.87
2022-10-23T00:41:35.132Z,9.87
2022-10-23T00:44:10.243Z,9.87
2022-10-23T00:46:40.203Z,9.87
2022-10-23T00:49:09.894Z,9.86
2022-10-23T00:51:49.033Z,9.86
2022-10-23T00:54:24.306Z,9.85
2022-10-23T00:56:56.172Z,9.86
2022-10-23T00:59:25.145Z,9.84
2022-10-23T01:01:53.239Z,9.83
2022-10-23T01:04:22.682Z,9.83
2022-10-23T01:06:58.695Z,9.83
2022-10-23T01:09:31.576Z,9.82
2022-10-23T01:12:11.846Z,9.80
2022-10-23T01:14:47.382Z,9.79
2022-10-23T01:17:44.436Z,9.77
2022-10-23T01:20:34.595Z,9.75
2022-10-23T01:23:22.273Z,9.73
2022-10-23T01:26:27.818Z,9.71
2022-10-23T01:29:03.512Z,9.69
2022-10-23T01:31:42.883Z,9.67
2022-10-23T01:34:16.514Z,9.65
2022-10-23T01:36:49.271Z,9.65
2022-10-23T01:39:27.870Z,9.64
2022-10-23T01:42:24.261Z,9.64
2022-10-23T01:45:07.173Z,9.63
2022-10-23T01:47:44.046Z,9.63
2022-10-23T01:50:15.601Z,9.62
2022-10-23T01:52:46.532Z,9.62
2022-10-23T01:55:15.485Z,9.63
2022-10-23T01:57:46.661Z,9.63
2022-10-23T02:00:17.837Z,9.62
2022-10-23T02:02:57.787Z,9.61
2022-10-23T02:05:32.092Z,9.60
2022-10-23T02:08:01.525Z,9.59
2022-10-23T02:10:40.378Z,9.58
2022-10-23T02:13:21.525Z,9.56
2022-10-23T02:16:01.988Z,9.55
2022-10-23T02:18:44.878Z,9.52
2022-10-23T02:21:17.877Z,9.50
2022-10-23T02:23:56.897Z,9.48
2022-10-23T02:26:33.646Z,9.46
2022-10-23T02:29:15.344Z,9.43
2022-10-23T02:31:46.094Z,9.41
2022-10-23T02:34:14.069Z,9.39
2022-10-23T02:36:42.866Z,9.36
2022-10-23T02:39:11.257Z,9.32
2022-10-23T02:41:42.592Z,9.29
2022-10-23T02:44:31.363Z,9.26
2022-10-23T02:47:23.606Z,9.23
2022-10-23T02:50:11.241Z,9.21
2022-10-23T02:52:54.095Z,9.20
2022-10-23T02:55:54.170Z,9.20
2022-10-23T02:58:39.334Z,9.20
2022-10-23T03:01:18.087Z,9.19
2022-10-23T03:03:53.532Z,9.18
2022-10-23T03:06:22.941Z,9.18
2022-10-23T03:08:58.200Z,9.18
2022-10-23T03:11:26.822Z,9.18
2022-10-23T03:13:56.371Z,9.18
2022-10-23T03:16:24.724Z,9.19
2022-10-23T03:18:55.441Z,9.18
2022-10-23T03:21:24.354Z,9.18
2022-10-23T03:23:54.088Z,9.17
2022-10-23T03:26:28.862Z,9.16
2022-10-23T03:28:56.950Z,9.16
2022-10-23T03:31:25.002Z,9.15
2022-10-23T03:33:56.610Z,9.13
2022-10-23T03:36:24.913Z,9.12
2022-10-23T03:38:53.959Z,9.11
2022-10-23T03:41:22.225Z,9.10
2022-10-23T03:43:50.244Z,9.10
2022-10-23T03:46:18.170Z,9.09
2022-10-23T03:48:46.251Z,9.09
2022-10-23T03:51:14.362Z,9.09
2022-10-23T03:53:42.310Z,9.08
2022-10-23T03:56:10.389Z,9.08
2022-10-23T03:58:38.363Z,9.08
2022-10-23T04:01:06.347Z,9.08
2022-10-23T04:03:34.350Z,9.09
2022-10-23T04:06:02.448Z,9.09
2022-10-23T04:08:30.570Z,9.09
2022-10-23T04:10:58.894Z,9.09
2022-10-23T04:13:43.159Z,9.08
2022-10-23T04:16:11.356Z,9.05
2022-10-23T04:18:42.256Z,9.05
2022-10-23T04:21:12.087Z,9.01
2022-10-23T04:23:40.236Z,8.99
2022-10-23T04:26:13.863Z,8.98
2022-10-23T04:28:41.974Z,8.97
2022-10-23T04:31:10.582Z,8.97
2022-10-23T04:33:41.940Z,8.97
2022-10-23T04:36:10.775Z,8.98
2022-10-23T04:38:40.461Z,9.01
2022-10-23T04:41:08.651Z,9.04
2022-10-23T04:43:36.996Z,9.07
2022-10-23T04:46:05.936Z,9.09
2022-10-23T04:48:35.617Z,9.14
2022-10-23T04:51:41.783Z,9.17
2022-10-23T04:54:37.876Z,9.20
2022-10-23T04:57:24.566Z,9.20
2022-10-23T05:00:14.963Z,9.22
2022-10-23T05:02:50.823Z,9.23
2022-10-23T05:05:19.195Z,9.24
2022-10-23T05:07:57.496Z,9.26
2022-10-23T05:10:31.525Z,9.27
2022-10-23T05:13:07.632Z,9.27
2022-10-23T05:15:35.921Z,9.28
2022-10-23T05:18:13.397Z,9.29
2022-10-23T05:20:45.105Z,9.31
2022-10-23T05:23:16.751Z,9.30
2022-10-23T05:25:53.660Z,9.33
2022-10-23T05:28:22.886Z,9.34
2022-10-23T05:30:51.295Z,9.35
2022-10-23T05:33:19.855Z,9.37
2022-10-23T05:35:50.984Z,9.39
2022-10-23T05:38:19.465Z,9.42
2022-10-23T05:40:47.688Z,9.43
2022-10-23T05:43:18.976Z,9.46
2022-10-23T05:46:07.778Z,9.48
2022-10-23T05:48:51.085Z,9.51
2022-10-23T05:51:39.522Z,9.53
2022-10-23T05:54:27.756Z,9.55
2022-10-23T05:59:51.526Z,9.62
2022-10-23T06:02:42.935Z,9.64
2022-10-23T06:05:35.910Z,9.67
2022-10-23T06:08:20.071Z,9.72
2022-10-23T06:10:50.031Z,9.76
2022-10-23T06:13:18.097Z,9.81
2022-10-23T06:15:46.398Z,9.84
2022-10-23T06:18:20.857Z,9.89
2022-10-23T06:21:05.368Z,9.94
2022-10-23T06:23:35.448Z,9.99
2022-10-23T06:26:29.455Z,10.03
2022-10-23T06:29:06.748Z,10.11
2022-10-23T06:31:35.039Z,10.15
2022-10-23T06:34:06.164Z,10.20
2022-10-23T06:36:34.453Z,10.24
2022-10-23T06:39:21.277Z,10.29
2022-10-23T06:42:07.888Z,10.35
2022-10-23T06:45:06.252Z,10.43
2022-10-23T06:47:54.193Z,10.49
2022-10-23T06:50:42.467Z,10.57
2022-10-23T06:53:13.625Z,10.63
2022-10-23T06:55:50.022Z,10.71
2022-10-23T06:58:21.201Z,10.77
2022-10-23T07:01:13.006Z,10.81
2022-10-23T07:03:42.654Z,10.84
2022-10-23T07:06:11.592Z,10.87
2022-10-23T07:08:40.457Z,11.02
2022-10-23T07:11:34.839Z,11.26
2022-10-23T07:14:03.028Z,11.42
2022-10-23T07:16:32.151Z,11.39
2022-10-23T07:19:02.028Z,11.31
2022-10-23T07:21:35.247Z,11.25
2022-10-23T07:24:17.446Z,11.22
2022-10-23T07:26:45.775Z,11.20
2022-10-23T07:29:15.234Z,11.23
2022-10-23T07:31:43.626Z,11.24
2022-10-23T07:34:27.877Z,11.31
2022-10-23T07:37:12.306Z,11.37
2022-10-23T07:39:40.387Z,11.43
2022-10-23T07:42:10.235Z,11.46
2022-10-23T07:44:38.283Z,11.49
2022-10-23T07:47:06.463Z,11.52
2022-10-23T07:49:34.681Z,11.58
2022-10-23T07:52:05.471Z,11.61
2022-10-23T07:54:43.059Z,11.61
2022-10-23T07:57:21.600Z,11.61
2022-10-23T08:02:58.024Z,11.62
2022-10-23T08:05:26.353Z,11.64
2022-10-23T08:07:58.856Z,11.64
2022-10-23T08:10:26.983Z,11.70
2022-10-23T08:12:55.190Z,11.73
2022-10-23T08:15:32.107Z,11.76
2022-10-23T08:18:04.632Z,11.79
2022-10-23T08:20:48.118Z,11.82
2022-10-23T08:23:18.627Z,11.84
2022-10-23T08:25:47.191Z,11.88
2022-10-23T08:28:16.669Z,11.93
2022-10-23T08:30:52.513Z,11.97
2022-10-23T08:33:20.869Z,12.02
2022-10-23T08:35:49.302Z,12.07
2022-10-23T08:38:20.673Z,12.14
2022-10-23T08:40:49.682Z,12.20
2022-10-23T08:43:57.011Z,12.26
2022-10-23T08:46:42.356Z,12.31
2022-10-23T08:49:54.077Z,12.37
2022-10-23T08:52:25.523Z,12.44
2022-10-23T08:54:58.195Z,12.51
2022-10-23T08:57:39.993Z,12.56
2022-10-23T09:00:18.483Z,12.60
2022-10-23T09:02:49.821Z,12.63
2022-10-23T09:05:20.863Z,12.67
2022-10-23T09:08:17.857Z,12.69
2022-10-23T09:11:07.471Z,12.68
2022-10-23T09:13:38.551Z,12.66
2022-10-23T09:16:22.947Z,12.64
2022-10-23T09:18:52.337Z,12.64
2022-10-23T09:21:22.014Z,12.63
2022-10-23T09:23:49.960Z,12.64
2022-10-23T09:26:19.234Z,12.63
2022-10-23T09:28:53.073Z,12.61
2022-10-23T09:31:21.173Z,12.63
2022-10-23T09:34:01.171Z,12.66
2022-10-23T09:36:29.935Z,12.69
2022-10-23T09:39:00.448Z,12.72
2022-10-23T09:41:28.389Z,12.77
2022-10-23T09:44:08.765Z,12.84
2022-10-23T09:46:38.105Z,12.90
2022-10-23T09:49:08.035Z,12.97
2022-10-23T09:51:42.038Z,13.01
2022-10-23T09:54:16.852Z,13.06
2022-10-23T09:59:24.169Z,13.10
2022-10-23T10:01:58.318Z,13.12
2022-10-23T10:04:55.824Z,13.17
2022-10-23T10:07:27.345Z,13.23
2022-10-23T10:09:56.888Z,13.30
2022-10-23T10:12:53.299Z,13.37
2022-10-23T10:15:31.744Z,13.46
2022-10-23T10:18:22.996Z,13.50
2022-10-23T10:21:20.888Z,13.52
2022-10-23T10:24:13.838Z,13.56
2022-10-23T10:27:11.877Z,13.58
2022-10-23T10:29:48.982Z,13.56
2022-10-23T10:32:20.541Z,13.55
2022-10-23T10:35:14.985Z,13.53
2022-10-23T10:37:57.400Z,13.55
2022-10-23T10:40:43.746Z,13.56
2022-10-23T10:43:39.561Z,13.60
2022-10-23T10:46:43.120Z,13.68
2022-10-23T10:49:19.942Z,13.76
2022-10-23T10:52:11.176Z,13.82
2022-10-23T10:54:57.937Z,13.88
2022-10-23T10:57:44.332Z,13.92
2022-10-23T11:00:18.908Z,13.98
2022-10-23T11:03:09.686Z,14.02
2022-10-23T11:05:46.785Z,14.06
2022-10-23T11:08:40.199Z,14.07
2022-10-23T11:11:38.007Z,14.02
2022-10-23T11:14:14.672Z,13.98
2022-10-23T11:16:48.260Z,13.97
2022-10-23T11:19:25.708Z,13.95
2022-10-23T11:21:59.573Z,13.91
2022-10-23T11:24:58.521Z,13.91
2022-10-23T11:27:31.701Z,13.90
2022-10-23T11:30:21.366Z,13.93
2022-10-23T11:32:51.931Z,13.97
2022-10-23T11:35:57.467Z,13.97
2022-10-23T11:38:30.467Z,13.96
2022-10-23T11:41:02.702Z,13.97
2022-10-23T11:43:48.655Z,14.01
2022-10-23T11:46:26.495Z,14.03
2022-10-23T11:48:56.209Z,14.09
2022-10-23T11:51:31.686Z,14.14
2022-10-23T11:54:12.216Z,14.16
2022-10-23T11:57:08.076Z,14.19
2022-10-23T11:59:41.371Z,14.24
2022-10-23T12:02:36.931Z,14.29
2022-10-23T12:05:25.415Z,14.34
2022-10-23T12:07:59.446Z,14.39
2022-10-23T12:10:31.298Z,14.41
2022-10-23T12:13:02.007Z,14.41
2022-10-23T12:15:32.535Z,14.38
2022-10-23T12:18:29.930Z,14.36
2022-10-23T12:21:00.223Z,14.32
2022-10-23T12:24:00.506Z,14.27
2022-10-23T12:26:50.653Z,14.25
2022-10-23T12:29:37.001Z,14.22
2022-10-23T12:32:04.840Z,14.22
2022-10-23T12:34:51.754Z,14.20
2022-10-23T12:37:29.144Z,14.18
2022-10-23T12:39:59.290Z,14.17
2022-10-23T12:42:29.701Z,14.18
2022-10-23T12:44:59.909Z,14.19
2022-10-23T12:47:30.168Z,14.19
2022-10-23T12:49:58.220Z,14.18
2022-10-23T12:52:26.332Z,14.17
2022-10-23T12:54:54.362Z,14.18
2022-10-23T12:57:26.564Z,14.19
2022-10-23T13:00:11.136Z,14.21
2022-10-23T13:02:39.255Z,14.23
2022-10-23T13:05:13.435Z,14.24
2022-10-23T13:07:46.392Z,14.23
2022-10-23T13:10:20.123Z,14.21
2022-10-23T13:13:07.009Z,14.18
2022-10-23T13:15:45.152Z,14.16
2022-10-23T13:18:15.011Z,14.13
2022-10-23T13:20:56.820Z,14.11
2022-10-23T13:23:33.299Z,14.09
2022-10-23T13:26:02.687Z,14.06
2022-10-23T13:28:43.939Z,14.02
2022-10-23T13:31:12.580Z,13.98
2022-10-23T13:33:48.090Z,13.93
2022-10-23T13:36:16.819Z,13.89
2022-10-23T13:38:46.221Z,13.84
2022-10-23T13:41:21.471Z,13.78
2022-10-23T13:43:49.578Z,13.73
2022-10-23T13:46:23.352Z,13.70
2022-10-23T13:48:51.924Z,13.67
2022-10-23T13:51:25.437Z,13.64
2022-10-23T13:53:55.452Z,13.59
2022-10-23T13:56:25.589Z,13.53
2022-10-23T13:58:53.973Z,13.50
2022-10-23T14:01:32.695Z,13.47
2022-10-23T14:04:00.952Z,13.47
2022-10-23T14:06:28.826Z,13.47
2022-10-23T14:08:57.362Z,13.46
2022-10-23T14:11:25.993Z,13.45
2022-10-23T14:13:54.035Z,13.45
2022-10-23T14:16:22.468Z,13.44
2022-10-23T14:18:50.489Z,13.42
2022-10-23T14:21:20.693Z,13.42
2022-10-23T14:23:50.438Z,13.40
2022-10-23T14:26:22.201Z,13.38
2022-10-23T14:28:53.187Z,13.35
2022-10-23T14:31:21.993Z,13.33
2022-10-23T14:33:56.205Z,13.31
2022-10-23T14:36:28.244Z,13.27
2022-10-23T14:39:02.798Z,13.24
2022-10-23T14:41:30.755Z,13.22
2022-10-23T14:43:58.808Z,13.19
2022-10-23T14:46:28.155Z,13.15
2022-10-23T14:48:59.877Z,13.12
2022-10-23T14:51:32.201Z,13.07
2022-10-23T14:54:02.562Z,13.03
2022-10-23T14:56:33.395Z,12.99
2022-10-23T14:59:04.800Z,12.95
2022-10-23T15:01:36.106Z,12.90
2022-10-23T15:04:04.853Z,12.86
2022-10-23T15:06:33.749Z,12.82
2022-10-23T15:09:03.068Z,12.77
2022-10-23T15:11:31.771Z,12.73
2022-10-23T15:14:00.727Z,12.68
2022-10-23T15:16:28.786Z,12.61
2022-10-23T15:18:56.940Z,12.55
2022-10-23T15:21:25.315Z,12.50
2022-10-23T15:23:54.873Z,12.45
2022-10-23T15:26:24.071Z,12.38
2022-10-23T15:28:57.685Z,12.32
2022-10-23T15:31:43.579Z,12.24
2022-10-23T15:34:16.422Z,12.15
2022-10-23T15:36:47.121Z,12.06
2022-10-23T15:39:18.112Z,12.00
2022-10-23T15:41:47.344Z,11.92
2022-10-23T15:44:17.637Z,11.86
2022-10-23T15:46:45.870Z,11.79
2022-10-23T15:49:14.117Z,11.71
2022-10-23T15:51:42.812Z,11.62
2022-10-23T15:54:16.766Z,11.56
2022-10-23T15:56:50.457Z,11.50
2022-10-23T15:59:21.052Z,11.46
2022-10-23T16:01:50.027Z,11.42
2022-10-23T16:04:18.370Z,11.37
2022-10-23T16:06:46.763Z,11.32
2022-10-23T16:09:15.840Z,11.26
2022-10-23T16:11:44.451Z,11.20
2022-10-23T16:14:15.122Z,11.15
2022-10-23T16:16:43.210Z,11.09
2022-10-23T16:19:12.149Z,11.06
2022-10-23T16:21:40.447Z,11.05
2022-10-23T16:24:09.146Z,11.03
2022-10-23T16:26:37.939Z,10.99
2022-10-23T16:29:08.132Z,10.93
2022-10-23T16:31:36.707Z,10.88
2022-10-23T16:34:05.568Z,10.85
2022-10-23T16:36:34.568Z,10.84
2022-10-23T16:39:15.413Z,10.81
2022-10-23T16:42:02.115Z,10.80
2022-10-23T16:44:53.342Z,10.79
2022-10-23T16:47:21.425Z,10.79
2022-10-23T16:49:49.419Z,10.78
2022-10-23T16:52:17.444Z,10.83
2022-10-23T16:54:45.561Z,10.87
2022-10-23T16:57:13.600Z,10.86
2022-10-23T16:59:41.589Z,10.83
2022-10-23T17:02:11.888Z,10.80
2022-10-23T17:04:40.613Z,10.78
2022-10-23T17:07:08.809Z,10.76
2022-10-23T17:09:38.621Z,10.74
2022-10-23T17:12:07.012Z,10.71
2022-10-23T17:14:35.034Z,10.68
2022-10-23T17:17:03.800Z,10.66
2022-10-23T17:19:44.135Z,10.63
2022-10-23T17:22:13.469Z,10.58
2022-10-23T17:24:42.592Z,10.56
2022-10-23T17:27:10.922Z,10.52
2022-10-23T17:29:39.490Z,10.50
2022-10-23T17:32:08.276Z,10.48
2022-10-23T17:34:36.453Z,10.45
2022-10-23T17:37:05.059Z,10.42
2022-10-23T17:39:33.110Z,10.41
2022-10-23T17:42:01.050Z,10.39
2022-10-23T17:44:29.396Z,10.36
2022-10-23T17:46:57.439Z,10.34
2022-10-23T17:49:25.816Z,10.31
2022-10-23T17:51:55.873Z,10.28
2022-10-23T17:54:26.486Z,10.27
2022-10-23T17:56:55.573Z,10.26
2022-10-23T17:59:23.727Z,10.24
2022-10-23T18:01:51.934Z,10.23
2022-10-23T18:04:21.416Z,10.21
2022-10-23T18:06:53.069Z,10.20
2022-10-23T18:09:22.751Z,10.19
2022-10-23T18:11:52.876Z,10.17
2022-10-23T18:14:21.740Z,10.16
2022-10-23T18:16:52.634Z,10.15
2022-10-23T18:19:20.833Z,10.14
2022-10-23T18:21:49.869Z,10.13
2022-10-23T18:24:18.992Z,10.12
2022-10-23T18:26:48.379Z,10.10
2022-10-23T18:29:17.597Z,10.10
2022-10-23T18:31:48.385Z,10.09
2022-10-23T18:34:22.013Z,10.09
2022-10-23T18:36:51.991Z,10.08
2022-10-23T18:39:22.819Z,10.08
2022-10-23T18:41:53.427Z,10.07
2022-10-23T18:44:22.936Z,10.07
2022-10-23T18:46:51.971Z,10.06
2022-10-23T18:49:20.449Z,10.05
2022-10-23T18:51:50.220Z,10.04
2022-10-23T18:54:20.558Z,10.04
2022-10-23T18:56:48.813Z,10.03
2022-10-23T18:59:20.157Z,10.02
2022-10-23T19:01:49.210Z,10.01
2022-10-23T19:04:18.589Z,10.00
2022-10-23T19:06:49.520Z,10.00
2022-10-23T19:09:18.096Z,10.00
2022-10-23T19:11:46.297Z,10.00
2022-10-23T19:14:14.625Z,9.99
2022-10-23T19:17:23.328Z,9.99
2022-10-23T19:19:59.704Z,9.95
2022-10-23T19:22:30.146Z,9.92
2022-10-23T19:25:05.628Z,9.91
2022-10-23T19:27:33.711Z,9.89
2022-10-23T19:30:05.211Z,9.88
2022-10-23T19:32:33.612Z,9.86
2022-10-23T19:35:01.731Z,9.87
2022-10-23T19:37:29.890Z,9.87
2022-10-23T19:39:58.537Z,9.88
2022-10-23T19:42:26.451Z,9.86
2022-10-23T19:44:54.586Z,9.85
2022-10-23T19:47:22.812Z,9.83
2022-10-23T19:49:52.015Z,9.80
2022-10-23T19:52:22.334Z,9.78
2022-10-23T19:54:51.367Z,9.76
2022-10-23T19:57:22.499Z,9.76
2022-10-23T19:59:52.925Z,9.75
2022-10-23T20:02:22.108Z,9.75
2022-10-23T20:04:51.477Z,9.73
2022-10-23T20:07:19.527Z,9.72
2022-10-23T20:09:47.668Z,9.70
2022-10-23T20:12:15.781Z,9.67
2022-10-23T20:14:44.412Z,9.63
2022-10-23T20:17:12.434Z,9.65
2022-10-23T20:19:40.557Z,9.64
2022-10-23T20:22:08.569Z,9.63
2022-10-23T20:24:36.651Z,9.62
2022-10-23T20:27:04.604Z,9.61
2022-10-23T20:29:32.594Z,9.59
2022-10-23T20:32:00.640Z,9.57
2022-10-23T20:34:28.674Z,9.55
2022-10-23T20:36:56.666Z,9.57
2022-10-23T20:39:25.775Z,9.58
2022-10-23T20:41:57.060Z,9.59
2022-10-23T20:44:25.027Z,9.61
2022-10-23T20:46:53.384Z,9.63
2022-10-23T20:49:22.689Z,9.64
2022-10-23T20:51:55.158Z,9.65
2022-10-23T20:54:25.823Z,9.63
2022-10-23T20:56:53.827Z,9.63
2022-10-23T20:59:21.925Z,9.62
2022-10-23T21:01:53.486Z,9.62
2022-10-23T21:04:25.088Z,9.62
2022-10-23T21:07:09.427Z,9.63
2022-10-23T21:09:38.750Z,9.64
2022-10-23T21:12:07.313Z,9.63
2022-10-23T21:14:36.241Z,9.63
2022-10-23T21:17:05.250Z,9.62
2022-10-23T21:19:33.213Z,9.59
2022-10-23T21:22:04.319Z,9.58
2022-10-23T21:24:32.351Z,9.57
2022-10-23T21:27:00.402Z,9.56
2022-10-23T21:29:28.406Z,9.56
2022-10-23T21:31:59.398Z,9.54
2022-10-23T21:34:28.341Z,9.53
2022-10-23T21:37:13.404Z,9.52
2022-10-23T21:39:43.578Z,9.49
2022-10-23T21:42:12.953Z,9.47
2022-10-23T21:44:40.907Z,9.45
2022-10-23T21:47:08.953Z,9.43
2022-10-23T21:49:37.273Z,9.41
2022-10-23T21:52:05.263Z,9.39
2022-10-23T21:54:33.351Z,9.37
2022-10-23T21:57:03.333Z,9.34
2022-10-23T21:59:35.571Z,9.31
2022-10-23T22:02:04.377Z,9.27
2022-10-23T22:04:32.891Z,9.24
2022-10-23T22:07:03.148Z,9.22
2022-10-23T22:09:32.341Z,9.20
2022-10-23T22:12:01.169Z,9.19
2022-10-23T22:14:29.311Z,9.17
2022-10-23T22:16:58.691Z,9.16
2022-10-23T22:19:26.948Z,9.15
2022-10-23T22:21:55.579Z,9.13
2022-10-23T22:24:23.911Z,9.11
2022-10-23T22:26:54.636Z,9.09
2022-10-23T22:29:27.589Z,9.08
2022-10-23T22:31:56.791Z,9.09
2022-10-23T22:37:17.194Z,9.15
2022-10-23T22:39:45.284Z,9.14
2022-10-23T22:42:13.361Z,9.14
2022-10-23T22:44:41.425Z,9.16
2022-10-23T22:47:09.614Z,9.17
2022-10-23T22:49:38.565Z,9.19
2022-10-23T22:52:06.677Z,9.21
2022-10-23T22:54:34.841Z,9.21
2022-10-23T22:57:02.875Z,9.21
2022-10-23T22:59:30.888Z,9.21
2022-10-23T23:01:58.860Z,9.21
2022-10-23T23:04:43.094Z,9.22
2022-10-23T23:07:12.784Z,9.22
2022-10-23T23:09:44.089Z,9.22
2022-10-23T23:12:14.187Z,9.22
2022-10-23T23:14:43.354Z,9.20
2022-10-23T23:17:12.178Z,9.17
2022-10-23T23:19:40.288Z,9.17
2022-10-23T23:22:08.568Z,9.15
2022-10-23T23:24:36.651Z,9.15
2022-10-23T23:27:04.678Z,9.15
2022-10-23T23:29:32.798Z,9.14
2022-10-23T23:32:00.946Z,9.13
2022-10-23T23:34:29.464Z,9.14
2022-10-23T23:36:57.889Z,9.15
2022-10-23T23:39:26.477Z,9.15
2022-10-23T23:41:54.852Z,9.15
2022-10-23T23:44:23.070Z,9.15
2022-10-23T23:46:51.139Z,9.15
2022-10-23T23:49:19.112Z,9.16
2022-10-23T23:51:47.267Z,9.16
2022-10-23T23:54:15.505Z,9.16
2022-10-23T23:56:43.519Z,9.16
2022-10-23T23:59:11.558Z,9.16
